Time;durP1;ratioP1;P1;durP2;ratioP2;P2;SDS_P1;SDS_P2;PMS_P1;PMS_P2;Temp;Humidity;BMP_temperature;BMP_pressure;BME280_temperature;BME280_humidity;BME280_pressure;Samples;Min_cycle;Max_cycle;Signal;HPM_P1;HPM_P2
2023/07/29 00:01:35;;;;;;;702.17;645.45;;;;;;;;;;4981067;28;20038;-64
2023/07/29 00:04:02;;;;;;;727.30;666.20;;;;;;;;;;4980373;28;20408;-66
2023/07/29 00:06:29;;;;;;;721.30;658.35;;;;;;;;;;4998169;28;20110;-64
2023/07/29 00:08:56;;;;;;;718.53;658.10;;;;;;;;;;4984222;28;20042;-64
2023/07/29 00:11:22;;;;;;;715.97;656.92;;;;;;;;;;4978677;28;20042;-65
2023/07/29 00:13:50;;;;;;;705.67;647.15;;;;;;;;;;4977048;28;20054;-65
2023/07/29 00:16:17;;;;;;;707.75;649.30;;;;;;;;;;4983903;28;20121;-65
2023/07/29 00:18:44;;;;;;;710.13;650.92;;;;;;;;;;4983164;28;20038;-65
2023/07/29 00:21:10;;;;;;;696.05;637.63;;;;;;;;;;4987757;28;20522;-64
2023/07/29 00:23:37;;;;;;;697.33;638.33;;;;;;;;;;4981013;28;20054;-64
2023/07/29 00:26:03;;;;;;;637.97;587.05;;;;;;;;;;4978616;28;20039;-64
2023/07/29 00:28:30;;;;;;;557.00;512.47;;;;;;;;;;4984056;28;20066;-63
2023/07/29 00:30:58;;;;;;;565.42;520.35;;;;;;;;;;4989159;28;20053;-66
2023/07/29 00:33:25;;;;;;;570.38;522.25;;;;;;;;;;4979369;28;20043;-66
2023/07/29 00:35:52;;;;;;;521.17;479.88;;;;;;;;;;4967124;28;20050;-66
2023/07/29 00:38:19;;;;;;;510.80;472.58;;;;;;;;;;4997341;28;20411;-64
2023/07/29 00:40:46;;;;;;;484.02;448.33;;;;;;;;;;4980469;28;20042;-65
2023/07/29 00:43:14;;;;;;;478.67;442.83;;;;;;;;;;4987832;28;20039;-64
2023/07/29 00:45:42;;;;;;;458.10;423.00;;;;;;;;;;4985663;28;20337;-64
2023/07/29 00:48:09;;;;;;;447.65;414.77;;;;;;;;;;4987922;28;20103;-64
2023/07/29 00:50:36;;;;;;;458.33;424.80;;;;;;;;;;4980479;28;20056;-65
2023/07/29 00:53:02;;;;;;;488.35;451.73;;;;;;;;;;4980909;28;20062;-66
2023/07/29 00:55:29;;;;;;;494.52;456.45;;;;;;;;;;4978917;28;20065;-64
2023/07/29 00:57:56;;;;;;;490.10;452.15;;;;;;;;;;4991605;28;20054;-65
2023/07/29 01:00:22;;;;;;;505.23;465.77;;;;;;;;;;4983185;28;20058;-65
2023/07/29 01:02:49;;;;;;;454.13;421.13;;;;;;;;;;4983342;28;20065;-64
2023/07/29 01:05:16;;;;;;;462.88;429.17;;;;;;;;;;4990522;28;20449;-64
2023/07/29 01:07:43;;;;;;;417.85;389.15;;;;;;;;;;4988519;28;20045;-65
2023/07/29 01:10:21;;;;;;;384.20;356.73;;;;;;;;;;4992447;28;20057;-64
2023/07/29 01:12:57;;;;;;;414.20;383.48;;;;;;;;;;4985295;28;20057;-64
2023/07/29 01:15:31;;;;;;;409.63;377.25;;;;;;;;;;4989043;28;20042;-65
2023/07/29 01:17:57;;;;;;;;;;;;;;;;;;4984301;28;20039;-65
2023/07/29 01:20:25;;;;;;;383.08;354.83;;;;;;;;;;4986125;28;19989;-65
2023/07/29 01:22:51;;;;;;;371.65;344.65;;;;;;;;;;4987015;28;20130;-65
2023/07/29 01:25:18;;;;;;;349.02;323.38;;;;;;;;;;4985059;28;20511;-65
2023/07/29 01:27:45;;;;;;;353.77;327.90;;;;;;;;;;4986363;28;20361;-65
2023/07/29 01:30:12;;;;;;;351.95;326.83;;;;;;;;;;4984073;28;20054;-66
2023/07/29 01:32:45;;;;;;;254.50;235.20;;;;;;;;;;4998224;28;20054;-65
2023/07/29 01:35:19;;;;;;;201.85;186.15;;;;;;;;;;4981297;28;20078;-65
2023/07/29 01:37:49;;;;;;;206.63;192.10;;;;;;;;;;4988445;28;20049;-65
2023/07/29 01:40:16;;;;;;;212.05;194.73;;;;;;;;;;4985054;28;20134;-64
2023/07/29 01:42:45;;;;;;;209.52;191.48;;;;;;;;;;4988247;28;20061;-65
2023/07/29 01:45:11;;;;;;;204.57;187.48;;;;;;;;;;4983318;28;20126;-64
2023/07/29 01:47:40;;;;;;;213.60;197.80;;;;;;;;;;4985486;28;20506;-64
2023/07/29 01:50:07;;;;;;;212.45;198.40;;;;;;;;;;4983705;28;20744;-65
2023/07/29 01:52:34;;;;;;;233.15;214.32;;;;;;;;;;4982293;28;20050;-66
2023/07/29 01:55:01;;;;;;;242.15;224.00;;;;;;;;;;4980935;28;20050;-65
2023/07/29 01:57:28;;;;;;;256.20;233.65;;;;;;;;;;4984257;28;20515;-64
2023/07/29 01:59:54;;;;;;;209.90;193.65;;;;;;;;;;4990401;28;20149;-65
2023/07/29 02:02:21;;;;;;;196.80;181.60;;;;;;;;;;5030154;22;20077;-69
2023/07/29 02:04:51;;;;;;;166.05;153.25;;;;;;;;;;4961616;28;20049;-69
2023/07/29 02:07:19;;;;;;;184.27;168.48;;;;;;;;;;4972255;28;20094;-71
2023/07/29 02:09:45;;;;;;;163.63;149.23;;;;;;;;;;4962355;28;20486;-69
2023/07/29 02:12:12;;;;;;;145.15;134.15;;;;;;;;;;4967045;28;20050;-70
2023/07/29 02:14:39;;;;;;;155.82;140.90;;;;;;;;;;4965393;28;20046;-69
2023/07/29 02:17:05;;;;;;;173.38;139.45;;;;;;;;;;4962791;28;20130;-70
2023/07/29 02:19:32;;;;;;;156.77;133.95;;;;;;;;;;4976819;28;20054;-72
2023/07/29 02:21:59;;;;;;;188.25;130.77;;;;;;;;;;4945240;28;20043;-70
2023/07/29 02:24:25;;;;;;;224.27;138.70;;;;;;;;;;4964432;28;20095;-69
2023/07/29 02:26:52;;;;;;;220.80;133.05;;;;;;;;;;4962848;28;20054;-70
2023/07/29 02:29:19;;;;;;;160.35;130.43;;;;;;;;;;4977018;28;20047;-70
2023/07/29 02:31:45;;;;;;;217.73;135.20;;;;;;;;;;4963381;28;20119;-70
2023/07/29 02:34:12;;;;;;;267.90;136.80;;;;;;;;;;4966848;28;20043;-70
2023/07/29 02:36:39;;;;;;;239.95;134.07;;;;;;;;;;4948086;28;20051;-70
2023/07/29 02:39:06;;;;;;;171.55;133.02;;;;;;;;;;4970510;28;20102;-70
2023/07/29 02:41:33;;;;;;;143.93;129.77;;;;;;;;;;4972218;28;20506;-70
2023/07/29 02:43:59;;;;;;;213.45;152.25;;;;;;;;;;4958389;28;20043;-68
2023/07/29 02:46:26;;;;;;;163.02;147.27;;;;;;;;;;4942723;28;20408;-72
2023/07/29 02:48:53;;;;;;;176.20;144.75;;;;;;;;;;4966187;28;20039;-70
2023/07/29 02:51:19;;;;;;;167.52;148.95;;;;;;;;;;4946117;28;20143;-80
2023/07/29 02:53:46;;;;;;;160.43;146.13;;;;;;;;;;4968372;28;20043;-70
2023/07/29 02:56:13;;;;;;;161.27;146.73;;;;;;;;;;4969668;28;20047;-69
2023/07/29 02:58:40;;;;;;;168.20;151.73;;;;;;;;;;4954687;28;20054;-69
2023/07/29 03:01:07;;;;;;;166.65;149.02;;;;;;;;;;4964263;28;20539;-70
2023/07/29 03:03:35;;;;;;;206.88;154.30;;;;;;;;;;4960534;28;20473;-70
2023/07/29 03:06:06;;;;;;;155.70;141.48;;;;;;;;;;4976106;28;20047;-69
2023/07/29 03:08:33;;;;;;;152.68;139.35;;;;;;;;;;4966521;28;20042;-70
2023/07/29 03:11:05;;;;;;;148.23;135.93;;;;;;;;;;4968836;28;20043;-69
2023/07/29 03:13:31;;;;;;;148.57;134.15;;;;;;;;;;4969706;28;20043;-69
2023/07/29 03:16:25;;;;;;;160.75;133.85;;;;;;;;;;4963737;28;20508;-70
2023/07/29 03:18:54;;;;;;;155.73;135.30;;;;;;;;;;4959407;28;20054;-69
2023/07/29 03:21:21;;;;;;;140.02;124.95;;;;;;;;;;4962434;28;20043;-72
2023/07/29 03:23:47;;;;;;;179.63;122.00;;;;;;;;;;4968236;28;20071;-72
2023/07/29 03:26:14;;;;;;;282.75;125.35;;;;;;;;;;4976521;28;20397;-70
2023/07/29 03:28:41;;;;;;;430.23;129.50;;;;;;;;;;4965495;28;20047;-69
2023/07/29 03:31:08;;;;;;;200.57;118.53;;;;;;;;;;4961218;28;20086;-69
2023/07/29 03:33:35;;;;;;;165.38;115.40;;;;;;;;;;4964078;28;20054;-69
2023/07/29 03:36:02;;;;;;;184.30;111.78;;;;;;;;;;4977586;28;20051;-68
2023/07/29 03:38:29;;;;;;;224.18;112.40;;;;;;;;;;4970208;28;20051;-69
2023/07/29 03:40:56;;;;;;;139.57;104.68;;;;;;;;;;4958047;28;20101;-70
2023/07/29 03:43:22;;;;;;;172.70;111.70;;;;;;;;;;4964523;28;20039;-71
2023/07/29 03:45:49;;;;;;;183.65;112.00;;;;;;;;;;4962834;28;20061;-69
2023/07/29 03:48:16;;;;;;;184.00;117.97;;;;;;;;;;4962504;28;20503;-68
2023/07/29 03:50:43;;;;;;;119.68;106.22;;;;;;;;;;4962930;28;20472;-69
2023/07/29 03:53:09;;;;;;;134.10;109.45;;;;;;;;;;4967869;28;20563;-68
2023/07/29 03:55:36;;;;;;;117.90;106.70;;;;;;;;;;4969543;28;20053;-68
2023/07/29 03:58:03;;;;;;;143.23;112.43;;;;;;;;;;4969945;28;20043;-70
2023/07/29 04:00:30;;;;;;;239.07;124.70;;;;;;;;;;4962514;28;20038;-70
2023/07/29 04:02:56;;;;;;;282.70;122.90;;;;;;;;;;4974203;28;20134;-70
2023/07/29 04:05:23;;;;;;;213.98;111.40;;;;;;;;;;4968203;28;20098;-72
2023/07/29 04:07:50;;;;;;;123.97;107.28;;;;;;;;;;4961925;28;20034;-69
2023/07/29 04:10:16;;;;;;;343.88;121.57;;;;;;;;;;4970278;28;20388;-69
2023/07/29 04:12:43;;;;;;;251.77;123.28;;;;;;;;;;4977416;28;20539;-70
2023/07/29 04:15:10;;;;;;;196.32;112.05;;;;;;;;;;4960794;28;20058;-69
2023/07/29 04:17:37;;;;;;;371.90;114.22;;;;;;;;;;4958861;28;20055;-69
2023/07/29 04:20:04;;;;;;;280.80;100.60;;;;;;;;;;4962734;28;20552;-67
2023/07/29 04:22:33;;;;;;;307.55;103.85;;;;;;;;;;4976481;28;20045;-70
2023/07/29 04:25:00;;;;;;;280.00;100.40;;;;;;;;;;4942872;28;20043;-70
2023/07/29 04:27:27;;;;;;;412.75;104.07;;;;;;;;;;4963028;28;20123;-71
2023/07/29 04:29:53;;;;;;;197.60;87.88;;;;;;;;;;4959500;28;20043;-71
2023/07/29 04:32:20;;;;;;;402.55;99.78;;;;;;;;;;4961311;28;20038;-71
2023/07/29 04:34:47;;;;;;;413.95;98.65;;;;;;;;;;4963925;28;20038;-70
2023/07/29 04:37:13;;;;;;;291.10;87.18;;;;;;;;;;4962673;28;20042;-70
2023/07/29 04:39:40;;;;;;;340.55;146.15;;;;;;;;;;4962878;28;20035;-71
2023/07/29 04:42:07;;;;;;;228.32;92.45;;;;;;;;;;4964109;28;20485;-72
2023/07/29 04:44:34;;;;;;;299.38;89.32;;;;;;;;;;4957938;28;20039;-71
2023/07/29 04:47:01;;;;;;;184.43;83.40;;;;;;;;;;4967461;28;20337;-70
2023/07/29 04:49:28;;;;;;;249.15;91.07;;;;;;;;;;4943231;28;20054;-70
2023/07/29 04:51:54;;;;;;;129.07;87.10;;;;;;;;;;4963402;28;20043;-70
2023/07/29 04:54:21;;;;;;;121.72;81.95;;;;;;;;;;4962787;28;20054;-67
2023/07/29 04:56:48;;;;;;;124.40;89.30;;;;;;;;;;4976580;28;20058;-70
2023/07/29 04:59:16;;;;;;;161.88;85.75;;;;;;;;;;4955640;28;20057;-70
2023/07/29 05:01:43;;;;;;;157.52;85.22;;;;;;;;;;4961974;28;20486;-74
2023/07/29 05:04:10;;;;;;;197.35;177.80;;;;;;;;;;4963504;28;20114;-67
2023/07/29 05:06:37;;;;;;;217.73;172.65;;;;;;;;;;4960458;28;20057;-72
2023/07/29 05:09:15;;;;;;;171.52;153.32;;;;;;;;;;4968884;28;20115;-71
2023/07/29 05:11:44;;;;;;;158.15;145.75;;;;;;;;;;4969067;28;20046;-72
2023/07/29 05:14:12;;;;;;;172.02;157.55;;;;;;;;;;4960659;28;20142;-72
2023/07/29 05:16:39;;;;;;;160.38;145.43;;;;;;;;;;4962587;28;20474;-70
2023/07/29 05:19:06;;;;;;;167.32;153.27;;;;;;;;;;4943491;28;20041;-71
2023/07/29 05:21:33;;;;;;;177.93;160.75;;;;;;;;;;4961940;28;20102;-72
2023/07/29 05:24:00;;;;;;;150.98;138.85;;;;;;;;;;4962017;28;20122;-73
2023/07/29 05:26:27;;;;;;;158.90;145.70;;;;;;;;;;4962502;28;20128;-71
2023/07/29 05:28:53;;;;;;;146.35;135.02;;;;;;;;;;4957475;28;20043;-75
2023/07/29 05:31:20;;;;;;;155.45;142.30;;;;;;;;;;4967379;28;20046;-74
2023/07/29 05:33:47;;;;;;;157.60;144.77;;;;;;;;;;4962677;28;20043;-72
2023/07/29 05:36:14;;;;;;;153.60;141.30;;;;;;;;;;4960327;28;20493;-74
2023/07/29 05:38:41;;;;;;;155.38;143.23;;;;;;;;;;4960426;28;20370;-72
2023/07/29 05:41:07;;;;;;;167.25;154.40;;;;;;;;;;4963929;28;20062;-73
2023/07/29 05:43:34;;;;;;;179.00;165.07;;;;;;;;;;4963694;28;20036;-73
2023/07/29 05:46:01;;;;;;;212.27;194.88;;;;;;;;;;4961052;28;20389;-75
2023/07/29 05:48:27;;;;;;;235.45;214.60;;;;;;;;;;4962768;28;20138;-74
2023/07/29 05:50:54;;;;;;;239.35;221.68;;;;;;;;;;4978844;28;20493;-72
2023/07/29 05:53:21;;;;;;;256.70;236.95;;;;;;;;;;4964163;28;20046;-71
2023/07/29 05:55:47;;;;;;;251.15;230.48;;;;;;;;;;4978746;28;20043;-75
2023/07/29 05:58:14;;;;;;;272.85;250.27;;;;;;;;;;4971796;28;20157;-70
2023/07/29 06:00:40;;;;;;;308.58;280.70;;;;;;;;;;4964972;28;20465;-72
2023/07/29 06:03:07;;;;;;;306.65;283.75;;;;;;;;;;4963108;28;20106;-74
2023/07/29 06:05:34;;;;;;;313.63;292.20;;;;;;;;;;4945294;28;20481;-72
2023/07/29 06:08:02;;;;;;;331.30;306.55;;;;;;;;;;4978223;28;20366;-75
2023/07/29 06:10:28;;;;;;;356.55;329.80;;;;;;;;;;4964429;28;20428;-67
2023/07/29 06:12:55;;;;;;;387.05;357.88;;;;;;;;;;4970786;28;20051;-68
2023/07/29 06:15:22;;;;;;;377.58;349.05;;;;;;;;;;4972848;28;20043;-67
2023/07/29 06:17:49;;;;;;;385.58;355.63;;;;;;;;;;4964233;28;20512;-70
2023/07/29 06:20:16;;;;;;;353.55;328.42;;;;;;;;;;4964584;28;20424;-67
2023/07/29 06:22:43;;;;;;;330.42;304.33;;;;;;;;;;4947190;28;20047;-67
2023/07/29 06:25:10;;;;;;;293.65;270.83;;;;;;;;;;4961153;28;20062;-69
2023/07/29 06:27:37;;;;;;;282.90;259.70;;;;;;;;;;4963776;28;20049;-71
2023/07/29 06:30:04;;;;;;;280.30;260.52;;;;;;;;;;4963085;28;20371;-70
2023/07/29 06:32:31;;;;;;;279.05;259.27;;;;;;;;;;4959263;28;20072;-73
2023/07/29 06:34:58;;;;;;;285.25;263.25;;;;;;;;;;4970170;28;20043;-72
2023/07/29 06:37:24;;;;;;;279.27;257.80;;;;;;;;;;4968888;28;20038;-70
2023/07/29 06:39:51;;;;;;;281.20;259.33;;;;;;;;;;4957702;28;20043;-71
2023/07/29 06:42:18;;;;;;;273.20;253.02;;;;;;;;;;4967692;28;20039;-70
2023/07/29 06:44:45;;;;;;;283.10;260.15;;;;;;;;;;4971058;28;20043;-70
2023/07/29 06:47:12;;;;;;;280.75;256.67;;;;;;;;;;4963840;28;20239;-66
2023/07/29 06:49:39;;;;;;;265.92;245.73;;;;;;;;;;4969074;28;20035;-65
2023/07/29 06:52:05;;;;;;;265.58;244.60;;;;;;;;;;4967634;28;20049;-67
2023/07/29 06:54:32;;;;;;;273.92;249.27;;;;;;;;;;4970489;28;20050;-69
2023/07/29 06:56:59;;;;;;;254.80;235.45;;;;;;;;;;4966066;28;20053;-67
2023/07/29 06:59:25;;;;;;;263.25;242.15;;;;;;;;;;4962945;28;20047;-73
2023/07/29 07:01:52;;;;;;;262.05;240.25;;;;;;;;;;4963344;28;20055;-67
2023/07/29 07:04:19;;;;;;;263.50;244.15;;;;;;;;;;4964574;28;20043;-67
2023/07/29 07:06:46;;;;;;;262.25;240.85;;;;;;;;;;4961110;28;20047;-69
2023/07/29 07:09:12;;;;;;;263.27;242.60;;;;;;;;;;4966227;28;20130;-68
2023/07/29 07:11:42;;;;;;;236.38;218.18;;;;;;;;;;4966338;28;20049;-69
2023/07/29 07:14:09;;;;;;;255.32;236.30;;;;;;;;;;4965680;28;20051;-70
2023/07/29 07:16:36;;;;;;;249.68;229.18;;;;;;;;;;4965537;28;20459;-70
2023/07/29 07:19:03;;;;;;;245.10;225.98;;;;;;;;;;4962763;28;20039;-66
2023/07/29 07:21:32;;;;;;;247.93;224.93;;;;;;;;;;4962967;28;20110;-69
2023/07/29 07:23:59;;;;;;;238.60;221.10;;;;;;;;;;4965957;28;20062;-69
2023/07/29 07:26:25;;;;;;;226.65;208.93;;;;;;;;;;4964069;28;20043;-70
2023/07/29 07:28:52;;;;;;;234.43;216.73;;;;;;;;;;4963565;28;20042;-71
2023/07/29 07:31:19;;;;;;;233.52;214.85;;;;;;;;;;4964871;28;20047;-71
2023/07/29 07:33:46;;;;;;;252.63;232.32;;;;;;;;;;4964506;28;20122;-75
2023/07/29 07:36:13;;;;;;;235.27;217.13;;;;;;;;;;4961531;28;20054;-71
2023/07/29 07:38:39;;;;;;;227.65;209.20;;;;;;;;;;4967881;28;20082;-71
2023/07/29 07:41:06;;;;;;;228.20;211.50;;;;;;;;;;4965172;28;20655;-67
2023/07/29 07:43:33;;;;;;;221.32;204.82;;;;;;;;;;4964673;28;20063;-71
2023/07/29 07:46:00;;;;;;;226.43;207.25;;;;;;;;;;4961859;28;20055;-67
2023/07/29 07:48:27;;;;;;;218.18;200.50;;;;;;;;;;4971848;28;20133;-72
2023/07/29 07:50:54;;;;;;;221.55;205.35;;;;;;;;;;4962026;28;20229;-68
2023/07/29 07:53:20;;;;;;;224.35;207.25;;;;;;;;;;4964251;28;20059;-70
2023/07/29 07:55:47;;;;;;;225.70;208.35;;;;;;;;;;4970828;28;20058;-69
2023/07/29 07:58:14;;;;;;;217.90;200.57;;;;;;;;;;4963236;28;20366;-71
2023/07/29 08:00:40;;;;;;;224.80;202.38;;;;;;;;;;4963088;28;20404;-69
2023/07/29 08:03:07;;;;;;;197.48;182.82;;;;;;;;;;4969698;28;20489;-71
2023/07/29 08:05:34;;;;;;;199.23;185.13;;;;;;;;;;4963636;28;20042;-69
2023/07/29 08:08:00;;;;;;;200.00;185.18;;;;;;;;;;4967877;28;20392;-69
2023/07/29 08:10:27;;;;;;;184.63;171.52;;;;;;;;;;4963798;28;20694;-71
2023/07/29 08:12:53;;;;;;;182.77;168.85;;;;;;;;;;4963474;28;20089;-68
2023/07/29 08:15:20;;;;;;;183.38;168.65;;;;;;;;;;4963261;28;20118;-71
2023/07/29 08:17:47;;;;;;;182.15;168.75;;;;;;;;;;4963105;28;20042;-69
2023/07/29 08:20:13;;;;;;;177.05;164.35;;;;;;;;;;4963487;28;20039;-67
2023/07/29 08:22:42;;;;;;;176.27;163.23;;;;;;;;;;4967690;28;20042;-72
2023/07/29 08:25:09;;;;;;;176.30;161.43;;;;;;;;;;4959499;28;20035;-70
2023/07/29 08:27:36;;;;;;;173.70;158.30;;;;;;;;;;4963681;28;20039;-68
2023/07/29 08:30:03;;;;;;;167.77;155.13;;;;;;;;;;4962182;28;20035;-70
2023/07/29 08:32:29;;;;;;;170.25;157.20;;;;;;;;;;4971119;28;20049;-76
2023/07/29 08:34:56;;;;;;;167.15;155.23;;;;;;;;;;4960660;28;20503;-68
2023/07/29 08:37:22;;;;;;;163.32;150.85;;;;;;;;;;4975453;28;20042;-69
2023/07/29 08:39:49;;;;;;;169.02;155.00;;;;;;;;;;4962602;28;20042;-71
2023/07/29 08:42:18;;;;;;;146.10;135.57;;;;;;;;;;4966880;28;20711;-69
2023/07/29 08:44:48;;;;;;;151.80;141.02;;;;;;;;;;4969807;28;20063;-67
2023/07/29 08:47:16;;;;;;;146.05;133.15;;;;;;;;;;4962626;28;20159;-68
2023/07/29 08:49:44;;;;;;;148.32;136.10;;;;;;;;;;4961412;28;20035;-67
2023/07/29 08:52:12;;;;;;;142.63;131.70;;;;;;;;;;4965435;28;20039;-67
2023/07/29 08:54:38;;;;;;;149.07;135.18;;;;;;;;;;4963932;28;20102;-69
2023/07/29 08:57:06;;;;;;;134.20;124.22;;;;;;;;;;4964139;28;20058;-68
2023/07/29 08:59:32;;;;;;;135.90;126.05;;;;;;;;;;4962106;28;20477;-70
2023/07/29 09:01:59;;;;;;;144.75;133.35;;;;;;;;;;4973646;28;20184;-70
2023/07/29 09:04:26;;;;;;;134.38;123.78;;;;;;;;;;4963305;28;20046;-71
2023/07/29 09:06:53;;;;;;;147.65;136.02;;;;;;;;;;4962174;28;20042;-67
2023/07/29 09:09:20;;;;;;;147.23;135.52;;;;;;;;;;4962748;28;20062;-70
2023/07/29 09:11:47;;;;;;;153.50;140.82;;;;;;;;;;4964856;28;20066;-70
2023/07/29 09:14:14;;;;;;;157.77;147.10;;;;;;;;;;4967734;28;20055;-69
2023/07/29 09:16:41;;;;;;;158.27;145.85;;;;;;;;;;4943722;28;20047;-73
2023/07/29 09:19:08;;;;;;;158.27;144.68;;;;;;;;;;4966512;28;20498;-68
2023/07/29 09:21:38;;;;;;;161.00;144.43;;;;;;;;;;4974355;28;20101;-72
2023/07/29 09:24:05;;;;;;;148.82;137.35;;;;;;;;;;4970247;28;20050;-69
2023/07/29 09:26:31;;;;;;;149.48;137.70;;;;;;;;;;4972664;28;20042;-76
2023/07/29 09:28:59;;;;;;;140.02;129.18;;;;;;;;;;4978456;28;20049;-71
2023/07/29 09:31:26;;;;;;;147.75;135.68;;;;;;;;;;4967756;28;20043;-68
2023/07/29 09:34:00;;;;;;;141.90;130.63;;;;;;;;;;4967701;28;20035;-71
2023/07/29 09:36:27;;;;;;;140.93;130.52;;;;;;;;;;4963176;28;20050;-70
2023/07/29 09:38:54;;;;;;;139.50;129.30;;;;;;;;;;4966704;28;20050;-75
2023/07/29 09:41:25;;;;;;;143.68;132.40;;;;;;;;;;4968883;28;20039;-74
2023/07/29 09:43:58;;;;;;;141.85;130.48;;;;;;;;;;4966564;28;20038;-70
2023/07/29 09:46:26;;;;;;;141.18;131.05;;;;;;;;;;4967210;28;20038;-69
2023/07/29 09:48:54;;;;;;;141.20;129.68;;;;;;;;;;4973800;28;20058;-66
2023/07/29 09:51:21;;;;;;;145.38;134.65;;;;;;;;;;4963470;28;20054;-69
2023/07/29 09:53:48;;;;;;;148.93;138.30;;;;;;;;;;4970012;28;20361;-66
2023/07/29 09:56:15;;;;;;;144.88;133.82;;;;;;;;;;4932346;29;20051;-67
2023/07/29 09:58:45;;;;;;;149.20;137.95;;;;;;;;;;4967293;28;20039;-69
2023/07/29 10:01:18;;;;;;;157.00;143.40;;;;;;;;;;4965231;28;20074;-73
2023/07/29 10:03:48;;;;;;;159.95;144.63;;;;;;;;;;4969522;28;20055;-67
2023/07/29 10:06:15;;;;;;;159.63;146.07;;;;;;;;;;4945063;28;20043;-69
2023/07/29 10:08:42;;;;;;;148.55;138.32;;;;;;;;;;4969688;28;20051;-75
2023/07/29 10:11:10;;;;;;;149.15;139.18;;;;;;;;;;4968553;28;20054;-74
2023/07/29 10:13:37;;;;;;;147.88;136.98;;;;;;;;;;4952167;28;20077;-67
2023/07/29 10:16:04;;;;;;;138.23;127.88;;;;;;;;;;4967039;28;20035;-69
2023/07/29 10:18:32;;;;;;;145.23;131.90;;;;;;;;;;4947409;28;20058;-71
2023/07/29 10:21:00;;;;;;;149.05;138.57;;;;;;;;;;4957281;28;20051;-68
2023/07/29 10:23:27;;;;;;;147.15;136.38;;;;;;;;;;4971003;28;20473;-68
2023/07/29 10:26:03;;;;;;;159.10;145.95;;;;;;;;;;4971184;28;20066;-76
2023/07/29 10:28:31;;;;;;;146.57;136.40;;;;;;;;;;4957783;28;20031;-68
2023/07/29 10:30:58;;;;;;;142.82;131.18;;;;;;;;;;4967894;28;20046;-68
2023/07/29 10:33:25;;;;;;;143.70;133.02;;;;;;;;;;4969517;28;20126;-66
2023/07/29 10:35:53;;;;;;;150.70;140.15;;;;;;;;;;4965031;28;20035;-70
2023/07/29 10:38:24;;;;;;;149.20;138.70;;;;;;;;;;4970914;28;20488;-68
2023/07/29 10:41:01;;;;;;;152.00;140.68;;;;;;;;;;4968462;28;20027;-69
2023/07/29 10:43:36;;;;;;;153.73;142.07;;;;;;;;;;4957855;28;20051;-68
2023/07/29 10:46:20;;;;;;;144.77;135.57;;;;;;;;;;4952278;28;20050;-67
2023/07/29 10:48:46;;;;;;;;;;;;;;;;;;4967987;28;20062;-68
2023/07/29 10:51:25;;;;;;;157.80;146.48;;;;;;;;;;4965260;28;19922;-66
2023/07/29 10:53:56;;;;;;;156.18;145.52;;;;;;;;;;4971701;28;20478;-68
2023/07/29 10:56:27;;;;;;;145.02;135.20;;;;;;;;;;4952216;28;20043;-68
2023/07/29 10:58:58;;;;;;;155.70;143.73;;;;;;;;;;4951518;28;20030;-75
2023/07/29 11:01:28;;;;;;;151.57;141.38;;;;;;;;;;4968689;28;20041;-72
2023/07/29 11:04:14;;;;;;;155.85;144.57;;;;;;;;;;4962815;28;20045;-74
2023/07/29 11:06:59;;;;;;;170.18;153.48;;;;;;;;;;4968462;28;20051;-69
2023/07/29 11:09:45;;;;;;;169.23;156.23;;;;;;;;;;4986451;28;20544;-70
2023/07/29 11:12:30;;;;;;;158.80;147.00;;;;;;;;;;4991444;28;20472;-69
2023/07/29 11:14:57;;;;;;;153.70;143.07;;;;;;;;;;4985362;28;20061;-68
2023/07/29 11:17:23;;;;;;;150.90;139.70;;;;;;;;;;4988403;28;20042;-68
2023/07/29 11:19:50;;;;;;;166.60;153.48;;;;;;;;;;4987716;28;20109;-67
2023/07/29 11:22:18;;;;;;;152.55;140.23;;;;;;;;;;4985090;28;20042;-69
2023/07/29 11:24:44;;;;;;;157.20;141.82;;;;;;;;;;4988832;28;20484;-65
2023/07/29 11:27:11;;;;;;;146.75;136.48;;;;;;;;;;4986326;28;20070;-67
2023/07/29 11:29:38;;;;;;;151.10;141.10;;;;;;;;;;4968516;28;20043;-66
2023/07/29 11:32:05;;;;;;;160.77;149.25;;;;;;;;;;4988419;28;20100;-68
2023/07/29 11:34:32;;;;;;;150.20;139.48;;;;;;;;;;4973038;28;20109;-71
2023/07/29 11:36:58;;;;;;;159.77;146.85;;;;;;;;;;4968501;28;20480;-70
2023/07/29 11:39:25;;;;;;;158.35;145.70;;;;;;;;;;4983355;28;20069;-69
2023/07/29 11:41:51;;;;;;;157.95;146.48;;;;;;;;;;4973146;28;20129;-70
2023/07/29 11:44:18;;;;;;;163.13;151.68;;;;;;;;;;4986198;28;20139;-67
2023/07/29 11:46:44;;;;;;;168.10;154.35;;;;;;;;;;4973633;28;20049;-68
2023/07/29 11:49:11;;;;;;;165.40;153.30;;;;;;;;;;4986801;28;20038;-68
2023/07/29 11:51:37;;;;;;;172.52;155.25;;;;;;;;;;4982831;28;20050;-74
2023/07/29 11:54:04;;;;;;;158.90;146.77;;;;;;;;;;4985978;28;20061;-69
2023/07/29 11:56:32;;;;;;;157.77;146.10;;;;;;;;;;4992519;28;20034;-70
2023/07/29 11:58:59;;;;;;;149.77;139.20;;;;;;;;;;4983504;28;20038;-66
2023/07/29 12:01:25;;;;;;;162.63;149.98;;;;;;;;;;4979568;28;20038;-72
2023/07/29 12:03:53;;;;;;;169.73;153.57;;;;;;;;;;4983465;28;20039;-68
2023/07/29 12:06:20;;;;;;;159.10;147.45;;;;;;;;;;4983553;28;20113;-69
2023/07/29 12:08:46;;;;;;;164.27;152.73;;;;;;;;;;4983717;28;20502;-74
2023/07/29 12:11:13;;;;;;;159.48;146.95;;;;;;;;;;4983450;28;20468;-69
2023/07/29 12:13:41;;;;;;;158.43;147.38;;;;;;;;;;4973298;28;20101;-67
2023/07/29 12:16:08;;;;;;;173.70;160.80;;;;;;;;;;4967163;28;20042;-68
2023/07/29 12:18:35;;;;;;;171.05;155.77;;;;;;;;;;4981730;28;20050;-74
2023/07/29 12:21:03;;;;;;;168.43;156.15;;;;;;;;;;4981401;28;20098;-70
2023/07/29 12:23:29;;;;;;;170.88;158.10;;;;;;;;;;4984809;28;20066;-72
2023/07/29 12:25:57;;;;;;;165.35;153.23;;;;;;;;;;4985933;28;20090;-68
2023/07/29 12:28:24;;;;;;;170.10;156.77;;;;;;;;;;4978963;28;20038;-69
2023/07/29 12:30:54;;;;;;;182.57;168.10;;;;;;;;;;4983677;28;20050;-68
2023/07/29 12:33:38;;;;;;;175.27;162.10;;;;;;;;;;4985068;28;20046;-70
2023/07/29 12:36:05;;;;;;;198.93;184.52;;;;;;;;;;4981152;28;20049;-67
2023/07/29 12:38:32;;;;;;;196.88;182.98;;;;;;;;;;4984053;28;20054;-68
2023/07/29 12:40:58;;;;;;;191.52;177.32;;;;;;;;;;4986196;28;20068;-69
2023/07/29 12:43:25;;;;;;;192.95;177.98;;;;;;;;;;4984485;28;20523;-68
2023/07/29 12:45:52;;;;;;;194.40;180.13;;;;;;;;;;4983480;28;20046;-71
2023/07/29 12:48:36;;;;;;;176.95;164.73;;;;;;;;;;4983671;28;20046;-69
2023/07/29 12:51:02;;;;;;;191.57;176.80;;;;;;;;;;4981157;28;20042;-70
2023/07/29 12:53:29;;;;;;;186.07;172.35;;;;;;;;;;4983574;28;20042;-69
2023/07/29 12:55:56;;;;;;;179.25;166.00;;;;;;;;;;4985237;28;20038;-68
2023/07/29 12:58:22;;;;;;;178.23;165.05;;;;;;;;;;4985427;28;20353;-68
2023/07/29 13:00:49;;;;;;;198.75;183.02;;;;;;;;;;4982548;28;22964;-67
2023/07/29 13:03:16;;;;;;;180.60;167.25;;;;;;;;;;4980763;28;20058;-68
2023/07/29 13:05:42;;;;;;;180.82;167.05;;;;;;;;;;4983067;28;20144;-65
2023/07/29 13:08:10;;;;;;;187.75;172.93;;;;;;;;;;4982341;28;20039;-71
2023/07/29 13:10:37;;;;;;;193.02;176.20;;;;;;;;;;4983845;28;20468;-74
2023/07/29 13:13:03;;;;;;;197.65;182.35;;;;;;;;;;4982260;28;20125;-68
2023/07/29 13:15:30;;;;;;;201.43;185.85;;;;;;;;;;4981970;28;20093;-69
2023/07/29 13:17:56;;;;;;;195.60;180.55;;;;;;;;;;4984763;28;20038;-67
2023/07/29 13:20:23;;;;;;;199.00;183.63;;;;;;;;;;4963114;28;20043;-70
2023/07/29 13:22:50;;;;;;;218.15;200.38;;;;;;;;;;4968768;28;20062;-67
2023/07/29 13:25:16;;;;;;;206.95;191.55;;;;;;;;;;4983687;28;20461;-68
2023/07/29 13:27:43;;;;;;;207.70;188.32;;;;;;;;;;4982446;28;20046;-69
2023/07/29 13:30:10;;;;;;;213.43;195.88;;;;;;;;;;4982644;28;20391;-67
2023/07/29 13:32:37;;;;;;;206.93;191.25;;;;;;;;;;4965603;28;20369;-71
2023/07/29 13:35:04;;;;;;;221.00;202.02;;;;;;;;;;4976745;28;20098;-73
2023/07/29 13:37:30;;;;;;;234.93;215.35;;;;;;;;;;4976661;28;20101;-70
2023/07/29 13:39:57;;;;;;;213.70;197.90;;;;;;;;;;4983233;28;20038;-72
2023/07/29 13:42:24;;;;;;;211.55;196.77;;;;;;;;;;4974057;28;20046;-68
2023/07/29 13:44:52;;;;;;;213.05;196.52;;;;;;;;;;4982537;28;20129;-68
2023/07/29 13:47:19;;;;;;;199.50;184.43;;;;;;;;;;4981211;28;20063;-67
2023/07/29 13:49:45;;;;;;;222.02;204.80;;;;;;;;;;4981828;28;20384;-66
2023/07/29 13:52:13;;;;;;;204.55;188.25;;;;;;;;;;4974455;28;20042;-68
2023/07/29 13:54:40;;;;;;;214.18;193.70;;;;;;;;;;4973020;28;20042;-69
2023/07/29 13:57:06;;;;;;;207.48;192.20;;;;;;;;;;4984177;28;20552;-69